Impacts TAF Board INFO
FOR SITUATIONAL AWARENESS. NOT TO BE USED FOR FLIGHT PLANNING PURPOSES.
IDs:

KPIT - Pittsburgh Intl, PA, US

Issued at 0242 UTC 25 Jun 2017
Updated at 0328 UTC 25 Jun 2017
Potential Impact None Slight Moderate High
Time0251Z 25/04Z 25/05Z 25/06Z 25/07Z 25/08Z 25/09Z 25/10Z 25/11Z 25/12Z 25/13Z 25/14Z 25/15Z 25/16Z>>
Type OBS PRVL PRVL PRVL PRVL PRVL PRVL PRVL PRVL PRVL PRVL PRVL PRVL PRVL
VIS 10 >6 >6 >6 >6 >6 >6 >6 >6 >6 >6 >6 >6 >6
CIG -- -- -- -- -- -- -- -- -- -- -- -- -- --
Cover FEW SCT SCT SCT SCT SCT SCT SCT SCT SCT SCT SCT SCT SCT
FltCat VFR VFR VFR VFR VFR VFR VFR VFR VFR VFR VFR VFR VFR VFR
WX -- -- -- -- -- -- -- -- -- -- -- -- -- --
WDir 230 250 250 250 250 250 250 250 250 250 250 250 260 260
WSpd 4 7 7 7 7 7 7 7 7 7 7 7 11 11
WGst -- -- -- -- -- -- -- -- -- -- -- -- 20 20

Raw TAF
KPIT 250242Z 2503/2606 25007KT P6SM SCT060
  FM251500 26011G20KT P6SM SCT060
  FM260200 26006KT P6SM SKC


Raw METAR
KPIT 250251Z 23004KT 10SM FEW250 20/13 A3001 RMK AO2 SLP161 T02000133 53018
KPIT 250151Z 23004KT 10SM FEW060 BKN250 21/13 A2998 RMK AO2 SLP152 T02110133
KPIT 250051Z 26005KT 10SM FEW060 SCT250 22/13 A2997 RMK AO2 SLP147 T02220133

METAR Board
Radar Display
Forecast Discussion

FOR SITUATIONAL AWARENESS. NOT TO BE USED FOR FLIGHT PLANNING PURPOSES.

Page loaded:  03:28 UTC  |   08:28 PM Pacific  |   09:28 PM Mountain  |   10:28 PM Central  |   11:28 PM Eastern

 

ADVISORIES

FORECASTS

FORECASTS

OBSERVATIONS

USER TOOLS

ABOUT US